Kariya, Japan
Current Conditions -  °F | °C
As of 11:00 AM on Tuesday 21 Oct 2014 (Local Time) from RJGG Reporting Station
Broken Clouds Broken Clouds  
Wind Chill: 66°   Ceiling: 1100
Heat Index: 66°   Visibility: 6mi
Dew Point: 64°   Wind: 3mph
Humidity: 94%   Direction: NA
Pressure: 30.06"   Gusts: NA
Location:  34.99°N, 137°E
Report Text: RJGG 210200Z VRB03KT 9999 FEW005 SCT008 BKN011 19/18 Q1018 BECMG 07005KT FEW005 SCT008 BKN020
Loading
Personal Weather Stations






























Interactive Weather Map
Tropical Storm Tracking
New forecast layout! Learn more

10-Day Weather Forecast

Advertisements
Track Severe Weather on mobile